createdAt,value
2017-04-25T11:47:22.943Z,933.79
2017-04-25T11:48:35.860Z,933.76
2017-04-25T11:49:48.776Z,933.71
2017-04-25T11:51:01.909Z,933.74
2017-04-25T11:52:14.831Z,933.67
2017-04-25T11:57:16.579Z,933.74
2017-04-25T11:58:29.702Z,933.77
2017-04-25T11:59:42.626Z,933.82
2017-04-25T12:00:55.547Z,933.83
2017-04-25T12:02:08.475Z,933.81
2017-04-25T12:03:21.701Z,933.83
2017-04-25T12:04:34.543Z,933.79
2017-04-25T12:05:47.288Z,933.84
2017-04-25T12:06:59.563Z,933.86
2017-04-25T12:08:12.317Z,933.84
2017-04-25T12:09:25.069Z,933.86
2017-04-25T12:10:37.824Z,933.83
2017-04-25T12:11:50.569Z,933.82
2017-04-25T12:13:03.336Z,933.8
2017-04-25T12:14:16.424Z,933.81
2017-04-25T12:15:29.309Z,933.84
2017-04-25T12:16:41.705Z,933.76
2017-04-25T12:17:54.586Z,933.81
2017-04-25T12:19:07.468Z,933.79
2017-04-25T12:20:20.354Z,933.83
2017-04-25T12:21:33.435Z,933.81
2017-04-25T12:22:46.315Z,933.75
2017-04-25T12:25:25.175Z,933.75
2017-04-25T12:26:38.063Z,933.71
2017-04-25T12:27:50.454Z,933.73
2017-04-25T12:29:03.336Z,933.76
2017-04-25T12:30:15.730Z,933.73
2017-04-25T12:31:28.121Z,933.76
2017-04-25T12:32:40.518Z,933.78
2017-04-25T12:33:53.120Z,933.81
2017-04-25T12:35:06.012Z,933.81
2017-04-25T12:36:19.096Z,933.87
2017-04-25T12:37:31.978Z,933.82
2017-04-25T12:38:44.887Z,933.89
2017-04-25T12:39:57.456Z,933.84
2017-04-25T12:41:10.028Z,933.82
2017-04-25T12:42:22.604Z,933.82
2017-04-25T12:43:35.669Z,933.82
2017-04-25T12:44:48.747Z,933.74
2017-04-25T12:46:01.809Z,933.76
2017-04-25T12:47:14.872Z,933.69
2017-04-25T12:48:27.447Z,933.7
2017-04-25T12:49:40.517Z,933.68
2017-04-25T12:50:53.783Z,933.71
2017-04-25T12:52:07.458Z,933.68
2017-04-25T12:53:20.525Z,933.66
2017-04-25T12:54:33.588Z,933.69
2017-04-25T12:55:46.159Z,933.6
2017-04-25T12:57:00.301Z,933.64
2017-04-25T12:58:14.918Z,933.65
2017-04-25T12:59:27.483Z,933.66
2017-04-25T13:00:40.547Z,933.64
2017-04-25T13:01:53.112Z,933.61
2017-04-25T13:03:06.184Z,933.6
2017-04-25T13:04:19.254Z,933.59
2017-04-25T13:05:32.321Z,933.6
2017-04-25T13:06:45.386Z,933.59
2017-04-25T13:07:58.458Z,933.53
2017-04-25T13:09:11.032Z,933.56
2017-04-25T13:10:24.105Z,933.56
2017-04-25T13:11:37.196Z,933.53
2017-04-25T13:12:49.260Z,933.51
2017-04-25T13:14:02.331Z,933.5
2017-04-25T13:15:14.910Z,933.47
2017-04-25T13:16:27.482Z,933.47
2017-04-25T13:17:40.551Z,933.48
2017-04-25T13:18:53.625Z,933.48
2017-04-25T13:20:06.195Z,933.47
2017-04-25T13:21:18.266Z,933.45
2017-04-25T13:22:29.827Z,933.46
2017-04-25T13:23:42.896Z,933.45
2017-04-25T13:24:55.465Z,933.5
2017-04-25T13:26:08.034Z,933.51
2017-04-25T13:27:20.602Z,933.48
2017-04-25T13:28:33.666Z,933.49
2017-04-25T13:29:46.737Z,933.45
2017-04-25T13:31:00.005Z,933.41
2017-04-25T13:32:12.072Z,933.45
2017-04-25T13:33:23.139Z,933.4
2017-04-25T13:34:36.210Z,933.4
2017-04-25T13:37:16.399Z,933.31
2017-04-25T13:38:29.469Z,933.26
2017-04-25T13:39:42.534Z,933.23
2017-04-25T13:40:55.605Z,933.2
2017-04-25T13:42:08.654Z,933.26
2017-04-25T13:43:19.623Z,933.22
2017-04-25T13:44:32.554Z,933.2
2017-04-25T13:45:45.485Z,933.21
2017-04-25T13:46:58.130Z,933.2
2017-04-25T13:48:11.067Z,933.12
2017-04-25T13:49:23.535Z,933.14
2017-04-25T13:50:36.468Z,933.15
2017-04-25T13:51:49.695Z,933.02
2017-04-25T13:53:00.667Z,933.04
2017-04-25T13:54:12.131Z,933.04
2017-04-25T13:55:25.062Z,933.01
2017-04-25T13:56:37.018Z,933.02
2017-04-25T13:57:49.672Z,933.01
2017-04-25T13:59:02.643Z,933
2017-04-25T14:00:15.622Z,932.96
2017-04-25T14:01:28.068Z,932.93
2017-04-25T14:02:39.538Z,932.89
2017-04-25T14:05:17.008Z,932.85
2017-04-25T14:06:29.444Z,932.81
2017-04-25T14:07:42.370Z,932.77
2017-04-25T14:08:55.301Z,932.77
2017-04-25T14:10:08.239Z,932.71
2017-04-25T14:11:20.679Z,932.74
2017-04-25T14:12:32.140Z,932.75
2017-04-25T14:13:43.107Z,932.7
2017-04-25T14:14:54.963Z,932.73
2017-04-25T14:16:06.912Z,932.72
2017-04-25T14:17:19.847Z,932.77
2017-04-25T14:18:32.287Z,932.82
2017-04-25T14:19:44.725Z,932.8
2017-04-25T14:20:57.655Z,932.84
2017-04-25T14:22:10.583Z,932.83
2017-04-25T14:23:21.051Z,932.78
2017-04-25T14:24:32.861Z,932.77
2017-04-25T14:25:44.903Z,932.65
2017-04-25T14:26:55.254Z,932.78
2017-04-25T14:28:06.575Z,932.68
2017-04-25T14:29:18.856Z,932.69
2017-04-25T14:30:31.614Z,932.67
2017-04-25T14:31:44.712Z,932.68
2017-04-25T14:32:56.026Z,932.69
2017-04-25T14:34:07.341Z,932.63
2017-04-25T14:35:18.172Z,932.59
2017-04-25T14:36:29.962Z,932.56
2017-04-25T14:37:40.798Z,932.47
2017-04-25T14:38:52.586Z,932.43
2017-04-25T14:40:05.339Z,932.44
2017-04-25T14:41:17.132Z,932.42
2017-04-25T14:42:29.882Z,932.37
2017-04-25T14:43:42.174Z,932.34
2017-04-25T14:44:54.930Z,932.29
2017-04-25T14:46:07.684Z,932.24
2017-04-25T14:47:19.471Z,932.22
2017-04-25T14:48:31.787Z,932.24
2017-04-25T14:49:44.569Z,932.21
2017-04-25T14:50:57.327Z,932.19
2017-04-25T14:52:09.609Z,932.1
2017-04-25T14:53:21.885Z,932.1
2017-04-25T14:54:34.843Z,932.15
2017-04-25T14:55:47.598Z,932.16
2017-04-25T14:57:00.349Z,932.16
2017-04-25T14:58:13.097Z,932.12
2017-04-25T14:59:25.371Z,932.09
2017-04-25T15:00:38.328Z,932.08
2017-04-25T15:01:51.082Z,932.06
2017-04-25T15:03:03.831Z,932.03
2017-04-25T15:04:16.261Z,932.01
2017-04-25T15:05:29.011Z,931.98
2017-04-25T15:06:41.777Z,931.97
2017-04-25T15:07:54.526Z,931.97
2017-04-25T15:09:07.272Z,931.93
2017-04-25T15:10:20.035Z,931.91
2017-04-25T15:11:32.303Z,931.91
2017-04-25T15:12:45.082Z,931.85
2017-04-25T15:13:57.945Z,931.85
2017-04-25T15:15:11.086Z,931.83
2017-04-25T15:16:23.690Z,931.82
2017-04-25T15:17:36.841Z,931.81
2017-04-25T15:18:50.271Z,931.75
2017-04-25T15:20:03.431Z,931.69
2017-04-25T15:21:16.285Z,931.7
2017-04-25T15:22:29.449Z,931.61
2017-04-25T15:23:42.603Z,931.53
2017-04-25T15:24:56.059Z,931.6
2017-04-25T15:26:08.196Z,931.6
2017-04-25T15:27:21.057Z,931.6
2017-04-25T15:28:33.718Z,931.53
2017-04-25T15:29:46.873Z,931.53
2017-04-25T15:31:00.032Z,931.48
2017-04-25T15:32:13.177Z,931.49
2017-04-25T15:33:25.447Z,931.48
2017-04-25T15:34:38.199Z,931.4
2017-04-25T15:35:50.623Z,931.41
2017-04-25T15:37:03.369Z,931.4
2017-04-25T15:38:15.653Z,931.39
2017-04-25T15:39:28.404Z,931.41
2017-04-25T15:40:41.163Z,931.34
2017-04-25T15:41:53.437Z,931.38
2017-04-25T15:43:06.185Z,931.36
2017-04-25T15:44:18.467Z,931.34
2017-04-25T15:45:31.213Z,931.34
2017-04-25T15:46:43.962Z,931.3
2017-04-25T15:47:56.707Z,931.28
2017-04-25T15:49:09.466Z,931.27
2017-04-25T15:50:22.232Z,931.26
2017-04-25T15:51:34.505Z,931.17
2017-04-25T15:52:47.256Z,931.15
2017-04-25T15:54:00.015Z,931.12
2017-04-25T15:56:39.316Z,931.19
2017-04-25T15:57:52.085Z,931.17
2017-04-25T15:59:04.969Z,931.12
2017-04-25T16:00:17.850Z,931.15
2017-04-25T16:01:30.243Z,931.14
2017-04-25T16:02:43.327Z,931.12
2017-04-25T16:03:56.220Z,931.1
2017-04-25T16:05:09.112Z,931.1
2017-04-25T16:06:22.006Z,931.05
2017-04-25T16:07:35.069Z,931.06
2017-04-25T16:08:48.134Z,930.99
2017-04-25T16:10:01.202Z,930.96
2017-04-25T16:11:13.267Z,931.03
2017-04-25T16:12:26.337Z,930.99
2017-04-25T16:13:39.402Z,930.98
2017-04-25T16:14:52.465Z,930.97
2017-04-25T16:16:05.530Z,930.97
2017-04-25T16:17:18.597Z,930.94
2017-04-25T16:18:32.170Z,930.95
2017-04-25T16:19:45.239Z,930.94
2017-04-25T16:20:58.310Z,930.95
2017-04-25T16:22:11.580Z,930.94
2017-04-25T16:23:23.651Z,930.9
2017-04-25T16:24:36.727Z,930.84
2017-04-25T16:25:49.794Z,930.79
2017-04-25T16:27:02.861Z,930.76
2017-04-25T16:28:15.447Z,930.73
2017-04-25T16:29:28.524Z,930.73
2017-04-25T16:30:41.619Z,930.66
2017-04-25T16:31:54.683Z,930.73
2017-04-25T16:33:07.743Z,930.68
2017-04-25T16:34:20.313Z,930.72
2017-04-25T16:35:33.391Z,930.72
2017-04-25T16:36:46.459Z,930.64
2017-04-25T16:37:59.531Z,930.62
2017-04-25T16:39:12.595Z,930.6
2017-04-25T16:40:25.669Z,930.52
2017-04-25T16:41:38.234Z,930.59
2017-04-25T16:42:51.285Z,930.59
2017-04-25T16:44:04.217Z,930.59
2017-04-25T16:45:16.657Z,930.55
2017-04-25T16:46:29.591Z,930.5
2017-04-25T16:47:42.518Z,930.51
2017-04-25T16:48:55.451Z,930.5
2017-04-25T16:50:08.378Z,930.51
2017-04-25T16:51:21.332Z,930.47
2017-04-25T16:52:34.263Z,930.44
2017-04-25T16:53:47.202Z,930.44
2017-04-25T16:55:00.136Z,930.42
2017-04-25T16:56:12.585Z,930.39
2017-04-25T16:57:25.516Z,930.38
2017-04-25T16:58:38.446Z,930.32
2017-04-25T16:59:51.380Z,930.26
2017-04-25T17:01:04.018Z,930.31
2017-04-25T17:02:16.457Z,930.32
2017-04-25T17:03:29.382Z,930.27
2017-04-25T17:04:41.825Z,930.29
2017-04-25T17:05:54.953Z,930.33
2017-04-25T17:07:07.878Z,930.24
2017-04-25T17:08:20.318Z,930.23
2017-04-25T17:09:33.248Z,930.22
2017-04-25T17:10:46.184Z,930.17
2017-04-25T17:11:59.414Z,930.19
2017-04-25T17:13:11.359Z,930.16
2017-04-25T17:14:24.295Z,930.16
2017-04-25T17:15:37.229Z,930.12
2017-04-25T17:16:50.162Z,930.13
2017-04-25T17:18:02.606Z,930.1
2017-04-25T17:19:15.532Z,930.1
2017-04-25T17:20:26.988Z,930.08
2017-04-25T17:21:39.921Z,930.06
2017-04-25T17:22:52.852Z,930.08
2017-04-25T17:24:05.779Z,930.1
2017-04-25T17:25:18.709Z,930.11
2017-04-25T17:26:31.839Z,930.1
2017-04-25T17:27:44.769Z,930.1
2017-04-25T17:28:57.699Z,930.11
2017-04-25T17:30:10.638Z,930.14
2017-04-25T17:31:23.073Z,930.1
2017-04-25T17:32:49.559Z,930.05
2017-04-25T17:34:02.491Z,930.02
2017-04-25T17:35:14.929Z,929.98
2017-04-25T17:36:27.860Z,929.98
2017-04-25T17:37:40.988Z,929.97
2017-04-25T17:38:53.928Z,930.04
2017-04-25T17:40:06.860Z,930.07
2017-04-25T17:41:19.787Z,930.03
2017-04-25T17:42:32.722Z,930
2017-04-25T17:43:45.656Z,930.04
2017-04-25T17:44:58.583Z,930
2017-04-25T17:46:11.519Z,929.98
2017-04-25T17:47:24.448Z,930.01
2017-04-25T17:48:51.140Z,930.07
2017-04-25T17:50:03.473Z,930.07
2017-04-25T17:51:15.275Z,930.05
2017-04-25T17:52:28.037Z,930.04
2017-04-25T17:53:40.804Z,930.1
2017-04-25T17:54:53.572Z,930.02
2017-04-25T17:57:33.189Z,930.09
2017-04-25T17:58:44.529Z,930.1
2017-04-25T17:59:57.291Z,930
2017-04-25T18:01:09.570Z,930.05
2017-04-25T18:02:22.350Z,930.05
2017-04-25T18:03:35.108Z,930.02
2017-04-25T18:04:47.397Z,930.03
2017-04-25T18:06:00.176Z,930.06
2017-04-25T18:07:12.453Z,930.05
2017-04-25T18:08:24.730Z,930.01
2017-04-25T18:09:37.487Z,929.96
2017-04-25T18:10:50.262Z,930.07
2017-04-25T18:12:02.544Z,930.04
2017-04-25T18:13:14.823Z,930.05
2017-04-25T18:14:27.586Z,930.04
2017-04-25T18:15:39.878Z,930.04
2017-04-25T18:16:52.624Z,930.01
2017-04-25T18:18:05.381Z,930.01
2017-04-25T18:19:18.154Z,929.93
2017-04-25T18:20:31.239Z,929.97
2017-04-25T18:21:43.998Z,930
2017-04-25T18:22:56.750Z,930.02
2017-04-25T18:24:09.029Z,929.94
2017-04-25T18:25:20.828Z,929.95
2017-04-25T18:26:33.819Z,929.92
2017-04-25T18:27:46.574Z,929.94
2017-04-25T18:28:59.337Z,929.92
2017-04-25T18:30:12.125Z,929.92
2017-04-25T18:31:24.878Z,929.93
2017-04-25T18:32:37.636Z,929.89
2017-04-25T18:33:50.393Z,929.89
2017-04-25T18:35:03.154Z,929.9
2017-04-25T18:36:16.114Z,929.91
2017-04-25T18:37:28.875Z,929.89
2017-04-25T18:38:41.636Z,929.9
2017-04-25T18:39:54.396Z,929.93
2017-04-25T18:41:06.188Z,929.93
2017-04-25T18:42:18.662Z,929.9
2017-04-25T18:43:31.416Z,929.86
2017-04-25T18:44:44.180Z,929.91
2017-04-25T18:45:56.458Z,929.89
2017-04-25T18:47:09.209Z,929.85
2017-04-25T18:48:22.171Z,929.85
2017-04-25T18:49:34.926Z,929.86
2017-04-25T18:50:47.677Z,929.84
2017-04-25T18:52:00.433Z,929.84
2017-04-25T18:53:12.710Z,929.85
2017-04-25T18:54:24.984Z,929.87
2017-04-25T18:55:37.260Z,929.84
2017-04-25T18:56:50.012Z,929.84
2017-04-25T18:58:02.411Z,929.91
2017-04-25T18:59:15.302Z,929.9
2017-04-25T19:00:28.198Z,929.92
2017-04-25T19:01:40.601Z,929.92
2017-04-25T19:02:53.488Z,929.92
2017-04-25T19:04:06.378Z,929.91
2017-04-25T19:05:19.268Z,929.96
2017-04-25T19:06:31.184Z,929.97
2017-04-25T19:07:44.073Z,929.94
2017-04-25T19:08:56.965Z,929.96
2017-04-25T19:10:09.851Z,929.96
2017-04-25T19:12:48.700Z,929.98
2017-04-25T19:14:01.589Z,929.95
2017-04-25T19:15:13.500Z,930.03
2017-04-25T19:16:25.896Z,930.01
2017-04-25T19:17:38.780Z,929.98
2017-04-25T19:18:51.674Z,930.01
2017-04-25T19:20:04.560Z,930.02
2017-04-25T19:21:17.451Z,929.99
2017-04-25T19:22:29.845Z,930.02
2017-04-25T19:23:40.799Z,930.02
2017-04-25T19:24:53.709Z,930.07
2017-04-25T19:26:06.795Z,930.07
2017-04-25T19:27:19.691Z,930.04
2017-04-25T19:28:32.580Z,930.05
2017-04-25T19:29:45.464Z,930.05
2017-04-25T19:30:58.352Z,930.04
2017-04-25T19:32:11.245Z,930.09
2017-04-25T19:33:23.649Z,930.13
2017-04-25T19:34:36.542Z,930.13
2017-04-25T19:35:49.424Z,930.18
2017-04-25T19:37:01.332Z,930.18
2017-04-25T19:38:13.733Z,930.13
2017-04-25T19:39:27.027Z,930.19
2017-04-25T19:40:39.922Z,930.17
2017-04-25T19:41:52.789Z,930.21
2017-04-25T19:43:05.542Z,930.26
2017-04-25T19:44:18.293Z,930.27
2017-04-25T19:45:30.566Z,930.22
2017-04-25T19:46:42.844Z,930.23
2017-04-25T19:47:55.594Z,930.21
2017-04-25T19:49:08.343Z,930.23
2017-04-25T19:50:20.442Z,930.21
2017-04-25T19:51:32.714Z,930.24
2017-04-25T19:52:45.467Z,930.23
2017-04-25T19:53:57.742Z,930.25
2017-04-25T19:55:10.490Z,930.23
2017-04-25T19:56:23.060Z,930.26
2017-04-25T19:57:35.812Z,930.25
2017-04-25T19:58:48.606Z,930.31
2017-04-25T20:00:01.362Z,930.28
2017-04-25T20:01:14.311Z,930.28
2017-04-25T20:02:26.584Z,930.27
2017-04-25T20:03:39.341Z,930.31
2017-04-25T20:04:51.620Z,930.29
2017-04-25T20:06:04.373Z,930.3
2017-04-25T20:07:16.650Z,930.3
2017-04-25T20:08:29.400Z,930.33
2017-04-25T20:09:42.164Z,930.33
2017-04-25T20:10:54.917Z,930.33
2017-04-25T20:12:07.667Z,930.37
2017-04-25T20:13:20.413Z,930.38
2017-04-25T20:14:33.168Z,930.38
2017-04-25T20:15:45.918Z,930.39
2017-04-25T20:16:58.668Z,930.41
2017-04-25T20:18:11.718Z,930.43
2017-04-25T20:19:24.471Z,930.46
2017-04-25T20:20:37.223Z,930.45
2017-04-25T20:21:49.976Z,930.44
2017-04-25T20:23:02.739Z,930.41
2017-04-25T20:24:15.491Z,930.41
2017-04-25T20:25:28.244Z,930.43
2017-04-25T20:26:40.989Z,930.47
2017-04-25T20:27:53.738Z,930.43
2017-04-25T20:29:06.487Z,930.45
2017-04-25T20:30:19.244Z,930.42
2017-04-25T20:31:31.519Z,930.46
2017-04-25T20:32:44.272Z,930.48
2017-04-25T20:33:57.032Z,930.47
2017-04-25T20:35:09.788Z,930.46
2017-04-25T20:36:22.082Z,930.45
2017-04-25T20:37:34.352Z,930.46
2017-04-25T20:38:46.632Z,930.49
2017-04-25T20:39:59.389Z,930.5
2017-04-25T20:41:11.670Z,930.48
2017-04-25T20:42:24.597Z,930.5
2017-04-25T20:43:37.523Z,930.48
2017-04-25T20:44:50.450Z,930.49
2017-04-25T20:46:03.379Z,930.44
2017-04-25T20:47:15.818Z,930.45
2017-04-25T20:48:28.746Z,930.46
2017-04-25T20:49:41.675Z,930.47
2017-04-25T20:50:54.115Z,930.44
2017-04-25T20:52:07.042Z,930.47
2017-04-25T20:53:18.990Z,930.45
2017-04-25T20:54:31.933Z,930.48
2017-04-25T20:55:44.865Z,930.51
2017-04-25T20:56:57.794Z,930.47
2017-04-25T20:58:10.923Z,930.5
2017-04-25T20:59:23.365Z,930.5
2017-04-25T21:00:36.298Z,930.5
2017-04-25T21:01:49.264Z,930.5
2017-04-25T21:03:02.401Z,930.49
2017-04-25T21:04:15.328Z,930.53
2017-04-25T21:05:28.259Z,930.57
2017-04-25T21:06:41.185Z,930.55
2017-04-25T21:07:54.115Z,930.52
2017-04-25T21:09:07.052Z,930.54
2017-04-25T21:10:19.987Z,930.56
2017-04-25T21:11:32.914Z,930.54
2017-04-25T21:12:45.969Z,930.57
2017-04-25T21:13:58.537Z,930.6
2017-04-25T21:15:11.588Z,930.67
2017-04-25T21:16:23.990Z,930.67
2017-04-25T21:17:36.870Z,930.72
2017-04-25T21:18:49.755Z,930.72
2017-04-25T21:20:02.644Z,930.71
2017-04-25T21:21:15.038Z,930.76
2017-04-25T21:22:27.950Z,930.76
2017-04-25T21:23:40.838Z,930.76
2017-04-25T21:24:53.719Z,930.76
2017-04-25T21:26:06.114Z,930.78
2017-04-25T21:27:18.519Z,930.8
2017-04-25T21:28:31.398Z,930.79
2017-04-25T21:29:44.291Z,930.84
2017-04-25T21:30:56.687Z,930.85
2017-04-25T21:32:09.569Z,930.83
2017-04-25T21:33:21.963Z,930.87
2017-04-25T21:34:34.847Z,930.88
2017-04-25T21:35:47.962Z,930.87
2017-04-25T21:37:00.845Z,930.91
2017-04-25T21:38:13.238Z,930.89
2017-04-25T21:39:25.635Z,930.89
2017-04-25T21:40:38.517Z,930.89
2017-04-25T21:41:51.601Z,930.9
2017-04-25T21:43:03.994Z,930.88
2017-04-25T21:44:16.879Z,930.89
2017-04-25T21:45:29.775Z,930.93
2017-04-25T21:46:42.957Z,930.96
2017-04-25T21:47:55.847Z,930.96
2017-04-25T21:49:08.247Z,930.97
2017-04-25T21:50:20.717Z,930.98
2017-04-25T21:51:33.605Z,930.99
2017-04-25T21:52:45.999Z,930.97
2017-04-25T21:53:58.884Z,931
2017-04-25T21:55:11.770Z,931.05
2017-04-25T21:56:24.193Z,931.02
2017-04-25T21:57:36.587Z,931.06
2017-04-25T21:58:49.470Z,931.08
2017-04-25T22:00:02.355Z,931.11
2017-04-25T22:01:14.264Z,931.1
2017-04-25T22:02:27.148Z,931.07
2017-04-25T22:03:39.551Z,931.09
2017-04-25T22:04:52.433Z,931.09
2017-04-25T22:06:05.319Z,931.06
2017-04-25T22:07:17.720Z,931.08
2017-04-25T22:08:30.607Z,931.09
2017-04-25T22:09:43.490Z,931.13
2017-04-25T22:10:55.886Z,931.09
2017-04-25T22:12:08.773Z,931.11
2017-04-25T22:13:21.689Z,931.15
2017-04-25T22:14:34.573Z,931.14
2017-04-25T22:15:46.965Z,931.2
2017-04-25T22:16:59.359Z,931.2
2017-04-25T22:18:12.241Z,931.2
2017-04-25T22:19:24.636Z,931.21
2017-04-25T22:20:37.523Z,931.23
2017-04-25T22:21:50.404Z,931.24
2017-04-25T22:23:03.285Z,931.3
2017-04-25T22:24:15.683Z,931.28
2017-04-25T22:25:28.768Z,931.28
2017-04-25T22:26:41.653Z,931.32
2017-04-25T22:27:54.569Z,931.33
2017-04-25T22:29:06.967Z,931.29
2017-04-25T22:30:19.855Z,931.3
2017-04-25T22:31:32.742Z,931.32
2017-04-25T22:32:45.623Z,931.27
2017-04-25T22:33:58.509Z,931.36
2017-04-25T22:35:10.907Z,931.34
2017-04-25T22:36:23.799Z,931.38
2017-04-25T22:37:36.707Z,931.35
2017-04-25T22:38:49.598Z,931.38
2017-04-25T22:40:02.491Z,931.38
2017-04-25T22:41:15.388Z,931.46
2017-04-25T22:42:28.280Z,931.46
2017-04-25T22:43:41.189Z,931.46
2017-04-25T22:44:54.086Z,931.46
2017-04-25T22:46:06.495Z,931.42
2017-04-25T22:47:33.453Z,931.47
2017-04-25T22:48:46.341Z,931.41
2017-04-25T22:49:59.255Z,931.4
2017-04-25T22:51:12.150Z,931.39
2017-04-25T22:52:25.073Z,931.38
2017-04-25T22:53:37.481Z,931.36
2017-04-25T22:54:50.380Z,931.35
2017-04-25T22:56:03.270Z,931.36
2017-04-25T22:57:16.359Z,931.38
2017-04-25T22:58:29.259Z,931.41
2017-04-25T22:59:42.343Z,931.4
2017-04-25T23:00:55.421Z,931.48
2017-04-25T23:02:08.510Z,931.49
2017-04-25T23:03:21.788Z,931.53
2017-04-25T23:04:34.860Z,931.51
2017-04-25T23:05:47.931Z,931.51
2017-04-25T23:07:00.999Z,931.5
2017-04-25T23:08:14.082Z,931.44
2017-04-25T23:09:26.660Z,931.52
2017-04-25T23:10:39.750Z,931.54
2017-04-25T23:11:52.859Z,931.56
2017-04-25T23:13:05.949Z,931.53
2017-04-25T23:14:19.240Z,931.55
2017-04-25T23:15:32.340Z,931.5
2017-04-25T23:16:45.430Z,931.53
2017-04-25T23:17:58.031Z,931.57
2017-04-25T23:19:11.118Z,931.59
2017-04-25T23:20:24.222Z,931.59
2017-04-25T23:21:36.809Z,931.63
2017-04-25T23:22:49.891Z,931.66
2017-04-25T23:24:02.969Z,931.68
2017-04-25T23:25:16.055Z,931.69
2017-04-25T23:26:29.142Z,931.73
2017-04-25T23:27:42.230Z,931.75
2017-04-25T23:28:55.340Z,931.74
2017-04-25T23:32:49.762Z,931.74
2017-04-25T23:34:02.809Z,931.71
2017-04-25T23:35:15.860Z,931.71
2017-04-25T23:36:28.916Z,931.69
2017-04-25T23:37:41.949Z,931.7
2017-04-25T23:38:54.998Z,931.7
2017-04-25T23:40:08.027Z,931.67
2017-04-25T23:41:20.875Z,931.64
2017-04-25T23:42:33.903Z,931.7
2017-04-25T23:43:46.991Z,931.66
2017-04-25T23:45:00.046Z,931.64
2017-04-25T23:46:12.594Z,931.63
2017-04-25T23:47:25.137Z,931.65
2017-04-25T23:48:38.167Z,931.61
2017-04-25T23:49:51.228Z,931.64
2017-04-25T23:51:03.770Z,931.61
2017-04-25T23:52:17.010Z,931.61
2017-04-25T23:53:30.044Z,931.62
2017-04-25T23:54:43.097Z,931.6
2017-04-25T23:55:55.658Z,931.57
2017-04-25T23:57:08.708Z,931.6
2017-04-25T23:58:21.744Z,931.56
2017-04-25T23:59:34.302Z,931.61
